Time;durP1;ratioP1;P1;durP2;ratioP2;P2;SDS_P1;SDS_P2;PMS_P1;PMS_P2;Temp;Humidity;BMP_temperature;BMP_pressure;BME280_temperature;BME280_humidity;BME280_pressure;Samples;Min_cycle;Max_cycle;Signal;HPM_P1;HPM_P2
2022/09/29 00:00:47;;;;;;;5.28;2.13;;;6.80;99.90;;;;;;5090586;28;20126;-78
2022/09/29 00:03:13;;;;;;;2.80;2.50;;;6.80;99.90;;;;;;5090591;28;20042;-79
2022/09/29 00:05:38;;;;;;;3.08;2.50;;;6.70;99.90;;;;;;5073770;28;20040;-78
2022/09/29 00:08:04;;;;;;;2.92;2.30;;;6.60;99.90;;;;;;5073834;28;20412;-78
2022/09/29 00:10:29;;;;;;;3.20;2.17;;;6.70;99.90;;;;;;5090668;28;20036;-78
2022/09/29 00:12:55;;;;;;;3.15;2.55;;;6.70;99.90;;;;;;5090364;28;20060;-78
2022/09/29 00:15:21;;;;;;;2.40;2.03;;;6.70;99.90;;;;;;5094004;28;20062;-78
2022/09/29 00:17:46;;;;;;;3.50;2.60;;;6.70;99.90;;;;;;5110504;28;20489;-78
2022/09/29 00:20:12;;;;;;;3.60;2.75;;;6.60;99.90;;;;;;5090554;28;20564;-78
2022/09/29 00:22:37;;;;;;;3.65;2.60;;;6.60;99.90;;;;;;5090217;28;20092;-78
2022/09/29 00:25:03;;;;;;;3.60;2.85;;;6.60;99.90;;;;;;5090352;28;20044;-78
2022/09/29 00:27:28;;;;;;;2.83;2.28;;;6.60;99.90;;;;;;5090238;28;20036;-78
2022/09/29 00:29:54;;;;;;;2.70;2.33;;;6.60;99.90;;;;;;5090581;28;20051;-78
2022/09/29 00:32:19;;;;;;;4.18;2.20;;;6.60;99.90;;;;;;5090129;28;20036;-78
2022/09/29 00:34:45;;;;;;;2.92;2.35;;;6.60;99.90;;;;;;5090316;28;20079;-78
2022/09/29 00:37:10;;;;;;;4.20;3.00;;;6.50;99.90;;;;;;5090371;28;20089;-79
2022/09/29 00:39:36;;;;;;;3.85;2.53;;;6.40;99.90;;;;;;5090205;28;20113;-78
2022/09/29 00:42:02;;;;;;;5.63;2.88;;;6.40;99.90;;;;;;5090020;28;20117;-78
2022/09/29 00:45:00;;;;;;;4.43;3.08;;;6.40;99.90;;;;;;5089369;28;20059;-78
2022/09/29 00:47:27;;;;;;;3.60;2.97;;;6.40;99.90;;;;;;5089262;28;20494;-78
2022/09/29 00:50:11;;;;;;;2.70;2.42;;;6.50;99.90;;;;;;5090311;28;20449;-78
2022/09/29 00:52:42;;;;;;;3.10;2.70;;;6.30;99.90;;;;;;5089752;28;20562;-78
2022/09/29 00:55:33;;;;;;;3.53;2.53;;;6.40;99.90;;;;;;5090066;28;20090;-79
2022/09/29 00:58:08;;;;;;;2.92;2.30;;;6.40;99.90;;;;;;5090334;28;20413;-79
2022/09/29 01:00:35;;;;;;;1.80;1.55;;;6.40;99.90;;;;;;5090199;28;20118;-79
2022/09/29 01:03:11;;;;;;;4.43;2.28;;;6.30;99.90;;;;;;5073403;28;20055;-79
2022/09/29 01:05:42;;;;;;;4.43;2.72;;;6.20;99.90;;;;;;5090059;28;20043;-79
2022/09/29 01:08:21;;;;;;;8.52;2.30;;;6.20;99.90;;;;;;5090083;28;20036;-79
2022/09/29 01:10:49;;;;;;;4.43;2.50;;;6.20;99.90;;;;;;5092242;28;20036;-79
2022/09/29 01:13:15;;;;;;;2.92;2.45;;;6.20;99.90;;;;;;5093706;28;20044;-79
2022/09/29 01:15:40;;;;;;;4.15;3.10;;;6.20;99.90;;;;;;5076854;28;20047;-79
2022/09/29 01:18:06;;;;;;;3.67;3.22;;;6.10;99.90;;;;;;5093631;28;20378;-79
2022/09/29 01:20:36;;;;;;;3.65;3.28;;;6.10;99.90;;;;;;5093555;28;20036;-79
2022/09/29 01:23:25;;;;;;;3.53;2.90;;;6.10;99.90;;;;;;5093245;28;20048;-79
2022/09/29 01:26:45;;;;;;;3.70;2.97;;;6.10;99.90;;;;;;5076505;28;20076;-79
2022/09/29 01:29:30;;;;;;;5.20;3.47;;;6.10;99.90;;;;;;5093807;28;20028;-79
2022/09/29 01:32:19;;;;;;;5.82;3.60;;;6.10;99.90;;;;;;5093392;28;20113;-79
2022/09/29 01:35:12;;;;;;;4.07;3.67;;;6.10;99.90;;;;;;5093271;28;20040;-79
2022/09/29 01:37:53;;;;;;;4.25;3.85;;;6.20;99.90;;;;;;5092562;28;20047;-79
2022/09/29 01:40:30;;;;;;;5.45;3.50;;;6.10;99.90;;;;;;5093341;28;20051;-79
2022/09/29 01:43:11;;;;;;;4.90;4.03;;;6.10;99.90;;;;;;5093621;28;20043;-79
2022/09/29 01:45:47;;;;;;;4.78;3.25;;;6.10;99.90;;;;;;5093082;28;20040;-79
2022/09/29 01:48:25;;;;;;;3.90;3.50;;;6.00;99.90;;;;;;5093024;28;20040;-78
2022/09/29 01:50:56;;;;;;;5.75;4.00;;;6.00;99.90;;;;;;5092993;28;20047;-79
2022/09/29 01:53:32;;;;;;;7.03;4.25;;;6.00;99.90;;;;;;5092897;28;20032;-79
2022/09/29 01:56:08;;;;;;;10.80;4.38;;;6.00;99.90;;;;;;5092886;28;20040;-79
2022/09/29 01:58:42;;;;;;;6.68;4.00;;;6.00;99.90;;;;;;5093081;28;20501;-79
2022/09/29 02:01:09;;;;;;;;;;;6.00;99.90;;;;;;5093388;28;20068;-79
2022/09/29 02:03:52;;;;;;;4.85;3.58;;;6.00;99.90;;;;;;5092599;28;19927;-79
2022/09/29 02:06:27;;;;;;;4.88;4.20;;;5.90;99.90;;;;;;5093098;28;20040;-79
2022/09/29 02:08:55;;;;;;;4.43;3.50;;;5.90;99.90;;;;;;5092889;28;20408;-78
2022/09/29 02:11:22;;;;;;;4.70;4.05;;;5.90;99.90;;;;;;5092598;28;20063;-78
2022/09/29 02:14:06;;;;;;;4.65;3.72;;;5.90;99.90;;;;;;5075754;28;20040;-79
2022/09/29 02:16:47;;;;;;;5.88;4.10;;;5.90;99.90;;;;;;5092696;28;20071;-78
2022/09/29 02:19:16;;;;;;;4.53;3.80;;;5.90;99.90;;;;;;5092498;28;20134;-78
2022/09/29 02:21:43;;;;;;;5.93;3.95;;;5.90;99.90;;;;;;5091731;28;20055;-78
2022/09/29 02:24:09;;;;;;;4.60;4.00;;;5.80;99.90;;;;;;5092250;28;20039;-78
2022/09/29 02:26:35;;;;;;;4.85;3.95;;;5.80;99.90;;;;;;5092301;28;20047;-78
2022/09/29 02:29:03;;;;;;;4.60;3.92;;;5.80;99.90;;;;;;5075595;28;20413;-78
2022/09/29 02:31:29;;;;;;;4.68;4.10;;;5.80;99.90;;;;;;5092190;28;20036;-78
2022/09/29 02:33:55;;;;;;;5.63;3.67;;;5.80;99.90;;;;;;5092167;28;20036;-78
2022/09/29 02:36:43;;;;;;;4.28;3.83;;;5.80;99.90;;;;;;5092258;28;20036;-78
2022/09/29 02:39:21;;;;;;;4.25;3.40;;;5.80;99.90;;;;;;5109172;28;20113;-78
2022/09/29 02:42:01;;;;;;;5.50;4.30;;;5.80;99.90;;;;;;5105544;28;20051;-78
2022/09/29 02:44:56;;;;;;;4.40;3.83;;;5.80;99.90;;;;;;5092388;28;20406;-78
2022/09/29 02:47:34;;;;;;;8.35;3.95;;;5.80;99.90;;;;;;5075482;28;20112;-78
2022/09/29 02:50:37;;;;;;;5.13;3.90;;;5.80;99.90;;;;;;5092162;28;20043;-78
2022/09/29 02:53:44;;;;;;;4.63;4.10;;;5.80;99.90;;;;;;5081054;28;20125;-78
2022/09/29 02:56:23;;;;;;;5.25;4.20;;;5.80;99.90;;;;;;5091785;28;20040;-78
2022/09/29 02:59:05;;;;;;;5.00;4.25;;;5.70;99.90;;;;;;5091647;28;20044;-78
2022/09/29 03:01:45;;;;;;;5.05;4.43;;;5.70;99.90;;;;;;5091431;28;20059;-78
2022/09/29 03:04:11;;;;;;;6.35;5.00;;;5.70;99.90;;;;;;5091766;28;20163;-78
2022/09/29 03:06:36;;;;;;;7.82;4.85;;;5.70;99.90;;;;;;5091768;28;20121;-78
2022/09/29 03:09:02;;;;;;;6.68;5.07;;;5.70;99.90;;;;;;5074679;28;20124;-78
2022/09/29 03:11:27;;;;;;;7.85;5.00;;;5.60;99.90;;;;;;5091169;28;20081;-78
2022/09/29 03:13:53;;;;;;;6.78;5.10;;;5.60;99.90;;;;;;5091550;28;20044;-77
2022/09/29 03:16:18;;;;;;;5.78;5.00;;;5.70;99.90;;;;;;5091528;28;20040;-78
2022/09/29 03:18:44;;;;;;;6.20;5.35;;;5.70;99.90;;;;;;5091580;28;20050;-78
2022/09/29 03:21:09;;;;;;;5.32;4.78;;;5.70;99.90;;;;;;5091133;28;20036;-78
2022/09/29 03:23:35;;;;;;;6.85;5.28;;;5.60;99.90;;;;;;5090996;28;20097;-78
2022/09/29 03:26:00;;;;;;;5.55;4.60;;;5.60;99.90;;;;;;5091059;28;20040;-78
2022/09/29 03:28:25;;;;;;;6.18;4.90;;;5.60;99.90;;;;;;5091533;28;20063;-78
2022/09/29 03:30:54;;;;;;;5.78;4.80;;;5.60;99.90;;;;;;5091076;28;20044;-78
2022/09/29 03:33:19;;;;;;;5.57;4.72;;;5.60;99.90;;;;;;5090274;28;20505;-78
2022/09/29 03:35:45;;;;;;;10.45;4.35;;;5.60;99.90;;;;;;5090655;28;20071;-78
2022/09/29 03:38:10;;;;;;;6.25;3.58;;;5.50;99.90;;;;;;5090033;28;20119;-78
2022/09/29 03:40:36;;;;;;;33.17;4.22;;;5.50;99.90;;;;;;5091062;28;20443;-78
2022/09/29 03:43:01;;;;;;;8.13;3.65;;;5.50;99.90;;;;;;5091090;28;20474;-78
2022/09/29 03:45:27;;;;;;;5.38;3.50;;;5.40;99.90;;;;;;5090883;28;20071;-78
2022/09/29 03:47:53;;;;;;;4.40;4.00;;;5.40;99.90;;;;;;5090267;28;20044;-78
2022/09/29 03:50:18;;;;;;;4.32;3.92;;;5.40;99.90;;;;;;5090827;28;20032;-78
2022/09/29 03:52:44;;;;;;;6.90;3.70;;;5.40;99.90;;;;;;5090370;28;20521;-78
2022/09/29 03:55:09;;;;;;;4.60;3.63;;;5.40;99.90;;;;;;5091033;28;20044;-78
2022/09/29 03:57:35;;;;;;;4.07;3.67;;;5.40;99.90;;;;;;5090917;28;20058;-78
2022/09/29 04:00:01;;;;;;;6.60;3.30;;;5.40;99.90;;;;;;5090462;28;20032;-78
2022/09/29 04:02:26;;;;;;;9.52;3.50;;;5.20;99.90;;;;;;5090043;28;20039;-78
2022/09/29 04:04:52;;;;;;;14.98;4.10;;;5.30;99.90;;;;;;5073562;28;20105;-78
2022/09/29 04:07:17;;;;;;;69.28;5.13;;;5.20;99.90;;;;;;5090537;28;20036;-78
2022/09/29 04:09:43;;;;;;;9.27;3.38;;;5.20;99.90;;;;;;5090570;28;20047;-78
2022/09/29 04:12:08;;;;;;;4.45;3.10;;;5.20;99.90;;;;;;5090478;28;20040;-78
2022/09/29 04:14:34;;;;;;;4.38;3.10;;;5.10;99.90;;;;;;5073671;28;20051;-78
2022/09/29 04:16:59;;;;;;;4.22;3.05;;;5.10;99.90;;;;;;5090162;28;20047;-78
2022/09/29 04:19:25;;;;;;;3.30;3.00;;;5.10;99.90;;;;;;5090587;28;20043;-79
2022/09/29 04:21:50;;;;;;;5.55;3.13;;;5.10;99.90;;;;;;5089867;28;20130;-78
2022/09/29 04:24:16;;;;;;;3.40;2.90;;;5.00;99.90;;;;;;5090524;28;20044;-78
2022/09/29 04:26:41;;;;;;;3.45;3.15;;;5.00;99.90;;;;;;5089471;28;20040;-78
2022/09/29 04:29:07;;;;;;;3.92;3.45;;;5.00;99.90;;;;;;5090456;28;20405;-78
2022/09/29 04:31:32;;;;;;;4.25;3.85;;;5.00;99.90;;;;;;5073298;28;20115;-78
2022/09/29 04:33:58;;;;;;;4.18;3.60;;;5.00;99.90;;;;;;5090323;28;20039;-78
2022/09/29 04:36:23;;;;;;;5.45;4.07;;;5.10;99.90;;;;;;5090307;28;20100;-79
2022/09/29 04:38:50;;;;;;;7.22;4.60;;;5.00;99.90;;;;;;5090399;28;20043;-78
2022/09/29 04:41:16;;;;;;;4.57;3.80;;;5.00;99.90;;;;;;5089950;28;20059;-78
2022/09/29 04:43:42;;;;;;;4.55;4.00;;;4.90;99.90;;;;;;5090396;28;20514;-78
2022/09/29 04:46:07;;;;;;;4.60;4.10;;;4.80;99.90;;;;;;5093650;28;20082;-78
2022/09/29 04:48:34;;;;;;;4.32;3.90;;;4.90;99.90;;;;;;5094155;28;20028;-78
2022/09/29 04:51:00;;;;;;;6.97;4.78;;;4.80;99.90;;;;;;5093906;28;20515;-78
2022/09/29 04:53:26;;;;;;;6.70;5.13;;;4.80;99.90;;;;;;5093956;28;20036;-78
2022/09/29 04:55:52;;;;;;;7.80;5.03;;;4.70;99.90;;;;;;5077518;28;20097;-78
2022/09/29 04:58:18;;;;;;;10.30;5.32;;;4.70;99.90;;;;;;5094017;28;20036;-79
2022/09/29 05:00:43;;;;;;;16.50;5.30;;;4.70;99.90;;;;;;5093936;28;20032;-78
2022/09/29 05:03:09;;;;;;;12.75;4.82;;;4.70;99.90;;;;;;5076740;28;20562;-79
2022/09/29 05:05:34;;;;;;;17.58;5.90;;;4.80;99.90;;;;;;5093757;28;20114;-79
2022/09/29 05:08:03;;;;;;;13.57;5.15;;;4.70;99.90;;;;;;5093960;28;20032;-79
2022/09/29 05:10:29;;;;;;;13.38;5.05;;;4.70;99.90;;;;;;5094031;28;20074;-78
2022/09/29 05:12:54;;;;;;;19.35;5.65;;;4.70;99.90;;;;;;5093646;28;20086;-79
2022/09/29 05:15:20;;;;;;;29.75;5.72;;;4.70;99.90;;;;;;5093826;28;20080;-79
2022/09/29 05:17:46;;;;;;;19.33;5.40;;;4.70;99.90;;;;;;5095074;28;20040;-79
2022/09/29 05:20:12;;;;;;;7.13;5.03;;;4.70;99.90;;;;;;5114067;28;20035;-79
2022/09/29 05:22:38;;;;;;;11.77;5.15;;;4.70;99.90;;;;;;5106917;28;20089;-79
2022/09/29 05:25:04;;;;;;;21.48;5.18;;;4.70;99.90;;;;;;5093657;28;20181;-79
2022/09/29 05:27:29;;;;;;;10.10;4.78;;;4.80;99.90;;;;;;5093459;28;20521;-79
2022/09/29 05:29:55;;;;;;;11.20;5.10;;;4.80;99.90;;;;;;5076595;28;20169;-79
2022/09/29 05:32:20;;;;;;;9.75;4.80;;;4.80;99.90;;;;;;5093326;28;20528;-79
2022/09/29 05:34:46;;;;;;;6.80;4.85;;;4.70;99.90;;;;;;5093445;28;20047;-79
2022/09/29 05:37:11;;;;;;;7.10;4.32;;;4.70;99.90;;;;;;5093624;28;20051;-79
2022/09/29 05:39:38;;;;;;;6.32;4.60;;;4.70;99.90;;;;;;5093598;28;20063;-79
2022/09/29 05:42:07;;;;;;;4.50;4.10;;;4.70;99.90;;;;;;5094366;28;20109;-79
2022/09/29 05:44:33;;;;;;;5.60;4.93;;;4.70;99.90;;;;;;5093850;28;20040;-79
2022/09/29 05:46:58;;;;;;;5.45;4.95;;;4.60;99.90;;;;;;5093226;28;20035;-79
2022/09/29 05:49:24;;;;;;;5.50;4.95;;;4.70;99.90;;;;;;5093014;28;20039;-79
2022/09/29 05:51:50;;;;;;;5.70;4.90;;;4.70;99.90;;;;;;5092583;28;20647;-79
2022/09/29 05:54:15;;;;;;;6.60;5.50;;;4.70;99.90;;;;;;5093061;28;20500;-79
2022/09/29 05:56:42;;;;;;;5.10;4.63;;;4.70;99.90;;;;;;5092133;28;20044;-79
2022/09/29 05:59:08;;;;;;;5.78;5.10;;;4.60;99.90;;;;;;5092943;28;20424;-79
2022/09/29 06:01:34;;;;;;;5.30;4.80;;;4.70;99.90;;;;;;5092885;28;20073;-79
2022/09/29 06:04:00;;;;;;;5.82;5.22;;;4.80;99.90;;;;;;5092828;28;20583;-79
2022/09/29 06:06:27;;;;;;;5.35;4.85;;;4.80;99.90;;;;;;5092721;28;20032;-79
2022/09/29 06:08:54;;;;;;;7.05;5.20;;;4.90;99.90;;;;;;5092974;28;20127;-79
2022/09/29 06:11:30;;;;;;;6.00;4.85;;;5.00;99.90;;;;;;5092890;28;20040;-79
2022/09/29 06:13:56;;;;;;;5.22;4.72;;;5.00;99.90;;;;;;5093015;28;20043;-79
2022/09/29 06:16:27;;;;;;;6.60;5.28;;;5.10;99.90;;;;;;5092603;28;20040;-79
2022/09/29 06:18:53;;;;;;;5.38;4.88;;;5.20;99.90;;;;;;5092491;28;20036;-79
2022/09/29 06:21:24;;;;;;;5.32;4.70;;;5.20;99.90;;;;;;5092487;28;20667;-79
2022/09/29 06:23:52;;;;;;;4.60;4.20;;;5.20;99.90;;;;;;5092390;28;20044;-79
2022/09/29 06:26:19;;;;;;;5.00;4.50;;;5.30;99.90;;;;;;5092412;28;20036;-79
2022/09/29 06:28:45;;;;;;;6.20;5.05;;;5.30;99.90;;;;;;5092391;28;20173;-79
2022/09/29 06:31:22;;;;;;;6.82;4.68;;;5.40;99.90;;;;;;5092101;28;20096;-79
2022/09/29 06:33:48;;;;;;;5.47;4.90;;;5.30;99.90;;;;;;5092364;28;20508;-79
2022/09/29 06:39:11;;;;;;;6.20;5.03;;;5.40;99.90;;;;;;5092265;28;20105;-79
2022/09/29 06:41:37;;;;;;;6.25;4.93;;;5.40;99.90;;;;;;5092067;28;20053;-79
2022/09/29 06:44:02;;;;;;;7.00;6.15;;;5.40;99.90;;;;;;5091931;28;20044;-79
2022/09/29 06:46:29;;;;;;;6.57;5.88;;;5.50;99.90;;;;;;5091390;28;20036;-78
2022/09/29 06:48:55;;;;;;;7.35;6.07;;;5.50;99.90;;;;;;5090837;28;20043;-79
2022/09/29 06:51:22;;;;;;;8.80;7.10;;;5.60;99.90;;;;;;5091629;28;20036;-79
2022/09/29 06:53:49;;;;;;;7.43;6.72;;;5.70;99.90;;;;;;5091801;28;20093;-79
2022/09/29 06:56:15;;;;;;;8.63;7.55;;;5.80;99.90;;;;;;5091560;28;20076;-79
2022/09/29 06:58:41;;;;;;;9.15;8.18;;;5.90;99.90;;;;;;5091724;28;20143;-79
2022/09/29 07:01:06;;;;;;;8.65;7.75;;;5.90;99.90;;;;;;5091680;28;20509;-80
2022/09/29 07:03:33;;;;;;;9.40;7.90;;;5.90;99.90;;;;;;5091562;28;20036;-79
2022/09/29 07:06:07;;;;;;;9.32;7.53;;;5.90;99.90;;;;;;5091534;28;20035;-79
2022/09/29 07:08:38;;;;;;;8.88;7.90;;;6.00;99.90;;;;;;5074720;28;20466;-80
2022/09/29 07:11:07;;;;;;;11.88;9.27;;;6.00;99.90;;;;;;5091316;28;20032;-79
2022/09/29 07:13:33;;;;;;;11.32;8.75;;;6.10;99.90;;;;;;5091480;28;20032;-79
2022/09/29 07:16:10;;;;;;;9.68;8.50;;;6.20;99.90;;;;;;5091753;28;20043;-79
2022/09/29 07:18:39;;;;;;;10.02;8.82;;;6.30;99.90;;;;;;5091585;28;20043;-79
2022/09/29 07:21:06;;;;;;;10.60;9.40;;;6.40;99.90;;;;;;5091083;28;20043;-79
2022/09/29 07:23:32;;;;;;;11.45;10.00;;;6.50;99.90;;;;;;5091442;28;20063;-79
2022/09/29 07:25:58;;;;;;;13.35;10.95;;;6.70;99.90;;;;;;5091282;28;20108;-79
2022/09/29 07:28:24;;;;;;;13.55;11.45;;;6.80;99.90;;;;;;5074824;28;20126;-80
2022/09/29 07:31:04;;;;;;;14.70;12.02;;;7.00;99.90;;;;;;5091123;28;20074;-81
2022/09/29 07:33:31;;;;;;;14.55;11.80;;;7.20;99.90;;;;;;5091017;28;20050;-80
2022/09/29 07:35:59;;;;;;;13.10;11.70;;;7.40;99.90;;;;;;5091366;28;20493;-79
2022/09/29 07:38:25;;;;;;;15.05;12.68;;;7.60;99.90;;;;;;5090947;28;20040;-80
2022/09/29 07:40:50;;;;;;;14.95;12.77;;;7.70;99.90;;;;;;5090230;28;20570;-79
2022/09/29 07:43:16;;;;;;;14.43;12.35;;;7.90;99.90;;;;;;5073145;28;20048;-78
2022/09/29 07:45:47;;;;;;;14.43;11.90;;;8.00;99.90;;;;;;5091054;28;20046;-78
2022/09/29 07:48:13;;;;;;;14.90;12.13;;;8.10;99.90;;;;;;5090837;28;20086;-78
2022/09/29 07:50:39;;;;;;;14.65;11.82;;;8.30;99.90;;;;;;5090729;28;20032;-78
2022/09/29 07:53:05;;;;;;;15.00;11.57;;;8.40;99.90;;;;;;5089404;28;20452;-78
2022/09/29 07:55:30;;;;;;;14.43;11.80;;;8.50;99.90;;;;;;5090784;28;20082;-78
2022/09/29 07:57:55;;;;;;;15.80;11.75;;;8.60;99.90;;;;;;5090832;28;20082;-78
2022/09/29 08:00:21;;;;;;;14.73;11.98;;;8.70;99.90;;;;;;5090847;28;20044;-77
2022/09/29 08:02:47;;;;;;;14.00;12.45;;;8.90;99.90;;;;;;5105409;28;20075;-78
2022/09/29 08:05:12;;;;;;;13.63;11.77;;;9.00;99.90;;;;;;5107537;28;20114;-78
2022/09/29 08:07:38;;;;;;;12.55;10.60;;;9.10;99.90;;;;;;5090651;28;20036;-78
2022/09/29 08:10:04;;;;;;;14.05;11.55;;;9.30;99.90;;;;;;5090558;28;20040;-78
2022/09/29 08:12:30;;;;;;;13.73;11.60;;;9.40;99.90;;;;;;5090245;28;20073;-78
2022/09/29 08:14:56;;;;;;;13.27;11.45;;;9.50;99.90;;;;;;5090820;28;20079;-78
2022/09/29 08:17:21;;;;;;;13.52;11.50;;;9.60;99.90;;;;;;5090823;28;20040;-77
2022/09/29 08:19:47;;;;;;;14.90;11.50;;;9.70;99.90;;;;;;5089775;28;20089;-77
2022/09/29 08:22:12;;;;;;;15.85;13.75;;;9.80;99.90;;;;;;5091766;28;20040;-77
2022/09/29 08:24:39;;;;;;;18.55;13.45;;;9.90;99.90;;;;;;5091754;28;20071;-78
2022/09/29 08:27:05;;;;;;;16.65;12.85;;;10.00;99.90;;;;;;5091804;28;20111;-78
2022/09/29 08:29:32;;;;;;;17.05;12.95;;;10.10;99.90;;;;;;5090348;28;20494;-78
2022/09/29 08:31:58;;;;;;;14.32;12.82;;;10.20;99.90;;;;;;5090287;28;20366;-78
2022/09/29 08:34:23;;;;;;;15.13;13.40;;;10.30;99.90;;;;;;5089583;28;20048;-78
2022/09/29 08:36:50;;;;;;;17.52;13.35;;;10.40;99.90;;;;;;5090089;28;20046;-79
2022/09/29 08:39:18;;;;;;;15.43;13.40;;;10.40;99.90;;;;;;5090122;28;20046;-80
2022/09/29 08:42:00;;;;;;;14.90;13.00;;;10.50;99.90;;;;;;5089127;28;20069;-79
2022/09/29 08:44:41;;;;;;;15.52;13.20;;;10.60;99.90;;;;;;5089404;28;20078;-79
2022/09/29 08:47:16;;;;;;;14.90;12.55;;;10.70;99.90;;;;;;5090310;28;20055;-78
2022/09/29 08:49:51;;;;;;;17.25;12.10;;;10.70;99.90;;;;;;5090630;28;20040;-78
2022/09/29 08:52:27;;;;;;;13.63;11.57;;;10.80;99.90;;;;;;5090158;28;20427;-79
2022/09/29 08:55:00;;;;;;;13.18;11.77;;;10.80;99.90;;;;;;5090540;28;20044;-79
2022/09/29 08:57:26;;;;;;;13.95;11.57;;;10.80;99.90;;;;;;5090154;28;20518;-79
2022/09/29 08:59:57;;;;;;;13.63;10.73;;;10.90;99.90;;;;;;5090330;28;20050;-78
2022/09/29 09:02:57;;;;;;;15.45;11.38;;;10.90;99.90;;;;;;5089871;28;20127;-79
2022/09/29 09:06:01;;;;;;;11.80;9.55;;;11.00;99.90;;;;;;5089992;28;20115;-79
2022/09/29 09:09:04;;;;;;;12.80;8.85;;;11.10;99.90;;;;;;5087104;28;20409;-78
2022/09/29 09:12:11;;;;;;;10.70;9.10;;;11.20;99.90;;;;;;5090089;28;20119;-78
2022/09/29 09:14:51;;;;;;;9.35;7.50;;;11.20;99.90;;;;;;5069416;28;20540;-78
2022/09/29 09:17:29;;;;;;;9.15;7.70;;;11.30;99.90;;;;;;5090324;28;20386;-78
2022/09/29 09:20:10;;;;;;;8.25;6.85;;;11.40;99.90;;;;;;5089962;28;20073;-78
2022/09/29 09:22:55;;;;;;;6.78;5.75;;;11.50;99.90;;;;;;5089566;28;20047;-79
2022/09/29 09:25:29;;;;;;;7.95;5.25;;;11.50;99.90;;;;;;5089968;28;20382;-78
2022/09/29 09:28:15;;;;;;;7.65;5.60;;;11.60;99.90;;;;;;5088694;28;20435;-78
2022/09/29 09:30:47;;;;;;;9.10;4.93;;;11.70;99.90;;;;;;5089879;28;20036;-78
2022/09/29 09:33:40;;;;;;;7.20;5.18;;;11.70;99.90;;;;;;5092930;28;20046;-78
2022/09/29 09:36:09;;;;;;;5.88;4.53;;;11.80;99.90;;;;;;5093750;28;20156;-77
2022/09/29 09:39:00;;;;;;;5.88;3.92;;;11.90;99.90;;;;;;5093649;28;20059;-78
2022/09/29 09:41:28;;;;;;;5.47;4.30;;;12.00;99.90;;;;;;5093311;28;20397;-78
2022/09/29 09:44:01;;;;;;;5.22;4.03;;;12.10;99.90;;;;;;5092962;28;20248;-78
2022/09/29 09:46:58;;;;;;;5.28;3.95;;;12.10;99.90;;;;;;5093704;28;20036;-77
2022/09/29 09:49:38;;;;;;;5.57;4.53;;;12.20;99.90;;;;;;5074497;28;20059;-77
2022/09/29 09:52:26;;;;;;;4.05;3.50;;;12.30;99.90;;;;;;5092596;28;20040;-78
2022/09/29 09:54:54;;;;;;;5.10;3.58;;;12.30;99.90;;;;;;5093013;28;20115;-77
2022/09/29 09:57:38;;;;;;;6.65;3.80;;;12.40;99.90;;;;;;5092912;28;20036;-77
2022/09/29 10:00:12;;;;;;;4.35;2.60;;;12.40;99.90;;;;;;5093116;28;20040;-77
2022/09/29 10:02:44;;;;;;;3.00;2.60;;;12.50;99.90;;;;;;5074329;28;20484;-77
2022/09/29 10:05:16;;;;;;;3.10;2.60;;;12.50;99.90;;;;;;5092673;28;20063;-77
2022/09/29 10:07:42;;;;;;;2.95;2.55;;;12.60;99.90;;;;;;5093034;28;20039;-77
2022/09/29 10:10:23;;;;;;;3.90;2.58;;;12.60;99.90;;;;;;5092767;28;20111;-77
2022/09/29 10:13:11;;;;;;;3.80;3.13;;;12.60;99.90;;;;;;5092616;28;20097;-77
2022/09/29 10:15:52;;;;;;;3.30;2.55;;;12.70;99.90;;;;;;5075752;28;20119;-76
2022/09/29 10:18:29;;;;;;;2.75;2.40;;;12.80;99.90;;;;;;5092757;28;20041;-77
2022/09/29 10:20:55;;;;;;;3.05;2.38;;;12.90;99.90;;;;;;5092401;28;20040;-77
2022/09/29 10:23:51;;;;;;;3.30;2.90;;;13.00;99.90;;;;;;5092366;28;20078;-77
2022/09/29 10:26:38;;;;;;;2.47;1.95;;;13.10;99.90;;;;;;5092526;28;20044;-77
2022/09/29 10:29:32;;;;;;;4.32;1.70;;;13.20;99.90;;;;;;5064602;28;20048;-77
2022/09/29 10:32:11;;;;;;;3.63;2.00;;;13.20;99.90;;;;;;5075497;28;20032;-77
2022/09/29 10:34:40;;;;;;;2.78;2.08;;;13.30;99.90;;;;;;5092492;28;20032;-77
2022/09/29 10:37:27;;;;;;;3.00;2.10;;;13.40;99.90;;;;;;5092230;28;20040;-77
2022/09/29 10:40:11;;;;;;;2.95;2.10;;;13.50;99.90;;;;;;5092183;28;20050;-77
2022/09/29 10:42:39;;;;;;;4.13;2.50;;;13.60;99.90;;;;;;5091265;28;20039;-76
2022/09/29 10:45:11;;;;;;;3.25;2.30;;;13.70;99.90;;;;;;5091996;28;20040;-76
2022/09/29 10:47:37;;;;;;;3.38;2.13;;;13.80;99.90;;;;;;5075049;28;20032;-77
2022/09/29 10:50:21;;;;;;;3.90;2.60;;;13.80;99.90;;;;;;5091982;28;20040;-77
2022/09/29 10:52:51;;;;;;;4.45;2.35;;;13.90;99.90;;;;;;5097507;28;20527;-77
2022/09/29 10:55:20;;;;;;;3.00;2.28;;;14.10;99.90;;;;;;5111560;28;20065;-77
2022/09/29 10:57:47;;;;;;;3.90;2.45;;;14.10;99.90;;;;;;5112103;28;20614;-76
2022/09/29 11:00:30;;;;;;;3.10;2.33;;;14.30;99.90;;;;;;5112350;28;20147;-77
2022/09/29 11:03:17;;;;;;;2.80;2.42;;;14.40;99.90;;;;;;5104424;28;20401;-76
2022/09/29 11:06:12;;;;;;;2.72;2.00;;;14.50;99.90;;;;;;5091630;28;20079;-78
2022/09/29 11:09:01;;;;;;;3.45;1.73;;;14.60;99.90;;;;;;5089713;28;20075;-77
2022/09/29 11:11:34;;;;;;;1.80;1.20;;;14.70;99.90;;;;;;5074380;28;20043;-77
2022/09/29 11:14:00;;;;;;;3.15;1.30;;;14.80;99.90;;;;;;5091509;28;20097;-77
2022/09/29 11:16:31;;;;;;;2.50;1.50;;;14.80;99.90;;;;;;5091386;28;20040;-77
2022/09/29 11:19:02;;;;;;;3.20;1.20;;;14.90;99.90;;;;;;5091614;28;20032;-77
2022/09/29 11:22:05;;;;;;;2.20;1.60;;;15.10;99.90;;;;;;5074285;28;20474;-78
2022/09/29 11:24:45;;;;;;;2.05;1.30;;;15.20;99.90;;;;;;5110325;28;20122;-76
2022/09/29 11:27:50;;;;;;;1.73;1.20;;;15.50;99.90;;;;;;5102668;28;20470;-77
2022/09/29 11:30:19;;;;;;;;;;;15.50;99.90;;;;;;5080833;28;20131;-77
2022/09/29 11:33:22;;;;;;;3.47;1.50;;;15.20;99.90;;;;;;5091119;28;19916;-77
2022/09/29 11:35:56;;;;;;;1.60;1.00;;;15.10;99.90;;;;;;5091037;28;20093;-76
2022/09/29 11:38:37;;;;;;;1.73;0.90;;;15.20;99.90;;;;;;5091141;28;20047;-77
2022/09/29 11:41:24;;;;;;;1.55;0.80;;;15.30;99.90;;;;;;5090793;28;20101;-77
2022/09/29 11:43:54;;;;;;;1.95;1.13;;;15.50;99.90;;;;;;5090908;28;20044;-77
2022/09/29 11:46:38;;;;;;;1.55;1.00;;;16.00;99.90;;;;;;5091476;28;20120;-77
2022/09/29 11:49:06;;;;;;;3.50;1.25;;;16.20;99.90;;;;;;5090883;28;20043;-77
2022/09/29 11:51:53;;;;;;;3.17;1.13;;;16.40;99.90;;;;;;5090762;28;20429;-78
2022/09/29 11:54:40;;;;;;;2.28;1.08;;;16.60;99.90;;;;;;5072957;28;20040;-77
2022/09/29 11:57:12;;;;;;;2.60;1.10;;;16.50;99.90;;;;;;5090803;28;20044;-77
2022/09/29 12:00:01;;;;;;;2.10;1.27;;;16.60;99.90;;;;;;5090667;28;20126;-77
2022/09/29 12:02:54;;;;;;;2.03;1.05;;;16.40;99.90;;;;;;5090552;28;20118;-78
2022/09/29 12:05:26;;;;;;;2.70;1.10;;;16.10;99.90;;;;;;5090693;28;20443;-77
2022/09/29 12:08:13;;;;;;;1.95;0.80;;;15.80;99.90;;;;;;5090591;28;20040;-77
2022/09/29 12:10:45;;;;;;;1.90;0.90;;;15.50;99.90;;;;;;5090466;28;20122;-77
2022/09/29 12:13:40;;;;;;;1.80;0.82;;;15.20;99.90;;;;;;5089879;28;20542;-78
2022/09/29 12:16:26;;;;;;;0.80;0.60;;;15.00;99.90;;;;;;5089888;28;20040;-76
2022/09/29 12:18:57;;;;;;;2.88;0.90;;;15.00;99.90;;;;;;5090957;28;20393;-77
2022/09/29 12:21:32;;;;;;;1.10;0.70;;;15.20;99.90;;;;;;5090554;28;20071;-76
2022/09/29 12:24:02;;;;;;;1.23;0.77;;;15.60;99.90;;;;;;5090464;28;20044;-76
2022/09/29 12:26:29;;;;;;;1.13;0.70;;;16.10;99.90;;;;;;5073778;28;20040;-77
2022/09/29 12:29:08;;;;;;;2.40;0.88;;;16.70;99.90;;;;;;5090691;28;20040;-77
2022/09/29 12:31:42;;;;;;;1.58;0.82;;;17.10;99.90;;;;;;5090155;28;20118;-78
2022/09/29 12:34:16;;;;;;;3.50;1.00;;;17.30;99.90;;;;;;5073435;28;20036;-77
2022/09/29 12:36:51;;;;;;;3.85;1.00;;;17.40;99.90;;;;;;5073504;28;20036;-76
2022/09/29 12:39:37;;;;;;;1.77;0.93;;;17.20;99.90;;;;;;5091341;28;20036;-77
2022/09/29 12:42:10;;;;;;;2.17;1.10;;;17.00;99.90;;;;;;5089244;28;20125;-77
2022/09/29 12:44:49;;;;;;;0.73;0.60;;;16.70;99.90;;;;;;5090109;28;20552;-78
2022/09/29 12:47:47;;;;;;;1.52;0.60;;;16.40;99.90;;;;;;5090298;28;20047;-77
2022/09/29 12:50:25;;;;;;;2.33;1.00;;;16.20;99.90;;;;;;5090242;28;20048;-77
2022/09/29 12:53:02;;;;;;;1.73;0.63;;;16.00;99.90;;;;;;5089144;28;20067;-77
2022/09/29 12:55:53;;;;;;;2.75;1.08;;;15.90;99.90;;;;;;5088995;28;20044;-77
2022/09/29 12:58:36;;;;;;;1.45;0.95;;;15.80;99.90;;;;;;5081579;28;20048;-77
2022/09/29 13:01:40;;;;;;;3.67;1.20;;;15.70;99.90;;;;;;5089903;28;20036;-77
2022/09/29 13:04:26;;;;;;;1.50;1.10;;;15.50;99.90;;;;;;5049707;28;20135;-77
2022/09/29 13:06:58;;;;;;;2.42;1.10;;;15.40;99.90;;;;;;5023086;28;20522;-77
2022/09/29 13:09:50;;;;;;;2.30;1.10;;;15.30;99.90;;;;;;5079211;28;20060;-77
2022/09/29 13:12:34;;;;;;;2.38;0.80;;;15.20;99.90;;;;;;5077056;28;20436;-77
2022/09/29 13:15:12;;;;;;;;;;;15.10;99.90;;;;;;5094455;28;20036;-77
2022/09/29 13:18:13;;;;;;;2.63;0.82;;;15.00;99.90;;;;;;5076967;28;19951;-77
2022/09/29 13:20:51;;;;;;;3.78;1.00;;;14.90;99.90;;;;;;5076899;28;20042;-78
2022/09/29 13:23:35;;;;;;;1.13;0.52;;;14.80;99.90;;;;;;5093498;28;20044;-77